Time;durP1;ratioP1;P1;durP2;ratioP2;P2;SDS_P1;SDS_P2;PMS_P1;PMS_P2;Temp;Humidity;BMP_temperature;BMP_pressure;BME280_temperature;BME280_humidity;BME280_pressure;Samples;Min_cycle;Max_cycle;Signal;HPM_P1;HPM_P2
2022/06/09 00:01:58;;;;;;;3.10;2.00;;;14.50;99.90;;;;;;4912697;29;20202;-82
2022/06/09 00:04:35;;;;;;;5.60;1.90;;;14.70;99.90;;;;;;4916033;29;20464;-81
2022/06/09 00:07:05;;;;;;;3.20;2.10;;;14.60;99.90;;;;;;4918354;29;20580;-82
2022/06/09 00:09:59;;;;;;;2.40;2.20;;;14.60;99.90;;;;;;4917536;29;20526;-81
2022/06/09 00:12:25;;;;;;;2.77;2.00;;;14.70;99.90;;;;;;4911801;29;20453;-81
2022/06/09 00:14:51;;;;;;;4.30;2.33;;;14.60;99.90;;;;;;4917710;29;20481;-82
2022/06/09 00:17:17;;;;;;;3.60;2.50;;;;;;;;;;4919722;29;20469;-82
2022/06/09 00:19:44;;;;;;;2.20;2.00;;;;;;;;;;4916895;29;20260;-81
2022/06/09 00:22:09;;;;;;;3.27;1.80;;;14.70;99.90;;;;;;4912303;29;20588;-82
2022/06/09 00:24:35;;;;;;;4.90;2.33;;;14.40;99.90;;;;;;4913894;29;20486;-82
2022/06/09 00:27:01;;;;;;;3.60;2.67;;;;;;;;;;4914973;29;20209;-80
2022/06/09 00:29:27;;;;;;;4.67;2.20;;;;;;;;;;4914808;29;20322;-82
2022/06/09 00:31:52;;;;;;;3.63;2.50;;;14.50;99.90;;;;;;4929225;29;21052;-83
2022/06/09 00:34:18;;;;;;;2.80;2.23;;;14.60;99.90;;;;;;4914550;29;20815;-82
2022/06/09 00:36:44;;;;;;;2.20;2.00;;;;;;;;;;4909945;29;20233;-83
2022/06/09 00:39:10;;;;;;;3.10;2.50;;;14.70;99.90;;;;;;4914296;29;20818;-83
2022/06/09 00:41:41;;;;;;;6.00;3.60;;;14.80;99.90;;;;;;4919372;29;20457;-84
2022/06/09 00:44:25;;;;;;;2.50;2.30;;;14.30;99.90;;;;;;4921850;29;20190;-84
2022/06/09 00:47:00;;;;;;;3.90;2.50;;;14.70;99.90;;;;;;4938907;23;20503;-87
2022/06/09 00:50:03;;;;;;;2.37;1.77;;;14.70;99.90;;;;;;4944758;28;20491;-87
2022/06/09 00:52:36;;;;;;;3.93;1.90;;;14.70;99.90;;;;;;4970837;23;21060;-81
2022/06/09 00:55:06;;;;;;;2.63;1.90;;;14.70;99.90;;;;;;4948109;28;20969;-81
2022/06/09 00:58:14;;;;;;;2.53;1.97;;;14.80;99.90;;;;;;4946928;28;20454;-82
2022/06/09 01:01:07;;;;;;;3.70;1.50;;;14.90;99.90;;;;;;4875155;29;20896;-81
2022/06/09 01:03:43;;;;;;;5.93;1.40;;;14.70;99.90;;;;;;4856137;29;20447;-79
2022/06/09 01:06:21;;;;;;;3.20;1.80;;;14.80;99.90;;;;;;4932024;28;20994;-81
2022/06/09 01:09:05;;;;;;;3.20;1.40;;;14.50;99.90;;;;;;4946739;28;20999;-79
2022/06/09 01:11:32;;;;;;;1.20;1.10;;;14.80;99.90;;;;;;4950568;28;20419;-79
2022/06/09 01:13:58;;;;;;;1.70;1.43;;;14.60;99.90;;;;;;4953933;28;20469;-81
2022/06/09 01:17:15;;;;;;;2.30;1.23;;;14.40;99.90;;;;;;4965737;28;20439;-81
2022/06/09 01:20:22;;;;;;;1.07;0.93;;;14.40;99.90;;;;;;4950776;28;20448;-81
2022/06/09 01:23:06;;;;;;;1.37;1.10;;;14.50;99.90;;;;;;4951378;28;20443;-82
2022/06/09 01:25:54;;;;;;;1.47;1.00;;;14.50;99.90;;;;;;4950860;28;20475;-82
2022/06/09 01:28:56;;;;;;;1.97;1.40;;;14.40;99.90;;;;;;4951131;28;20448;-83
2022/06/09 01:31:40;;;;;;;2.00;1.00;;;14.40;99.90;;;;;;4951219;28;20535;-79
2022/06/09 01:34:28;;;;;;;4.20;1.00;;;14.30;99.90;;;;;;4955679;28;21185;-80
2022/06/09 01:37:13;;;;;;;1.27;1.17;;;14.40;99.90;;;;;;4949552;28;20892;-80
2022/06/09 01:39:55;;;;;;;1.80;1.03;;;14.40;99.90;;;;;;4949295;28;20219;-81
2022/06/09 01:42:21;;;;;;;1.37;0.80;;;;;;;;;;4951384;28;20531;-81
2022/06/09 01:44:48;;;;;;;2.50;1.20;;;14.00;99.90;;;;;;4952439;28;20475;-81
2022/06/09 01:47:20;;;;;;;1.87;1.70;;;14.10;99.90;;;;;;4950532;28;20471;-79
2022/06/09 01:49:47;;;;;;;1.53;1.10;;;14.10;99.90;;;;;;4950148;28;20829;-80
2022/06/09 01:52:13;;;;;;;2.10;1.63;;;;;;;;;;4951239;28;21179;-81
2022/06/09 01:54:40;;;;;;;2.50;1.40;;;14.60;99.90;;;;;;4953494;28;20435;-82
2022/06/09 01:57:12;;;;;;;5.68;1.27;;;13.90;99.90;;;;;;4952849;28;20546;-82
2022/06/09 01:59:43;;;;;;;3.55;1.35;;;13.90;99.90;;;;;;4943997;29;20244;-83
2022/06/09 02:02:16;;;;;;;1.60;1.43;;;13.90;99.90;;;;;;4950253;28;20180;-83
2022/06/09 02:05:10;;;;;;;4.10;1.57;;;13.90;99.90;;;;;;4947376;28;21501;-82
2022/06/09 02:07:39;;;;;;;2.80;1.33;;;13.90;99.90;;;;;;4937799;28;20460;-80
2022/06/09 02:10:19;;;;;;;1.80;1.23;;;13.90;99.90;;;;;;4949430;28;20293;-81
2022/06/09 02:12:46;;;;;;;5.93;1.77;;;13.80;99.90;;;;;;4951143;28;20263;-81
2022/06/09 02:15:16;;;;;;;1.40;1.30;;;13.90;99.90;;;;;;4949804;28;20740;-80
2022/06/09 02:17:47;;;;;;;3.15;1.40;;;13.90;99.90;;;;;;4947730;28;20467;-81
2022/06/09 02:20:14;;;;;;;3.95;1.20;;;13.90;99.90;;;;;;4940830;28;20857;-82
2022/06/09 02:22:40;;;;;;;2.87;1.40;;;;;;;;;;4949794;28;21161;-85
2022/06/09 02:25:06;;;;;;;3.60;1.80;;;14.00;99.90;;;;;;4950001;28;20440;-84
2022/06/09 02:27:33;;;;;;;1.92;1.33;;;;;;;;;;4947528;28;20464;-82
2022/06/09 02:29:59;;;;;;;1.90;1.30;;;;;;;;;;4949570;28;20238;-83
2022/06/09 02:32:25;;;;;;;3.20;1.73;;;;;;;;;;4949932;28;20180;-83
2022/06/09 02:34:51;;;;;;;2.73;1.63;;;;;;;;;;4947344;28;20429;-82
2022/06/09 02:37:17;;;;;;;2.15;1.70;;;;;;;;;;4951616;29;20451;-83
2022/06/09 02:39:42;;;;;;;1.70;1.50;;;13.90;99.90;;;;;;4951432;29;20671;-83
2022/06/09 02:42:08;;;;;;;3.13;1.70;;;;;;;;;;4951449;28;20447;-82
2022/06/09 02:44:34;;;;;;;2.43;2.00;;;13.20;99.90;;;;;;4953040;28;20255;-83
2022/06/09 02:47:00;;;;;;;4.45;1.98;;;13.80;99.90;;;;;;4947215;28;20546;-84
2022/06/09 02:49:26;;;;;;;6.47;1.80;;;;;;;;;;4946546;28;20344;-85
2022/06/09 02:51:54;;;;;;;3.42;1.60;;;13.50;99.90;;;;;;4946522;28;20185;-83
2022/06/09 02:54:20;;;;;;;8.55;1.92;;;;;;;;;;4947975;28;20741;-83
2022/06/09 02:56:46;;;;;;;2.03;1.70;;;13.40;99.90;;;;;;4945152;28;20785;-79
2022/06/09 02:59:12;;;;;;;4.87;2.20;;;;;;;;;;4943489;28;20186;-80
2022/06/09 03:01:38;;;;;;;4.67;1.67;;;13.40;99.90;;;;;;4948197;28;20204;-81
2022/06/09 03:04:05;;;;;;;3.47;1.92;;;;;;;;;;4950911;28;20890;-82
2022/06/09 03:06:31;;;;;;;2.45;1.48;;;13.60;99.90;;;;;;4945193;28;20208;-84
2022/06/09 03:08:56;;;;;;;6.00;2.10;;;13.70;99.90;;;;;;4950903;28;20230;-81
2022/06/09 03:11:22;;;;;;;2.07;1.80;;;12.70;99.90;;;;;;4951428;28;20193;-83
2022/06/09 03:13:48;;;;;;;4.57;2.50;;;;;;;;;;4948933;28;20231;-81
2022/06/09 03:16:15;;;;;;;2.93;2.70;;;13.60;99.90;;;;;;4948635;28;20189;-80
2022/06/09 03:18:42;;;;;;;4.40;2.17;;;13.60;99.90;;;;;;4946751;28;20467;-80
2022/06/09 03:21:08;;;;;;;2.25;2.05;;;;;;;;;;4944842;28;20184;-82
2022/06/09 03:23:34;;;;;;;3.17;2.00;;;;;;;;;;4948566;28;20192;-81
2022/06/09 03:26:00;;;;;;;2.70;2.00;;;;;;;;;;4946334;28;20962;-81
2022/06/09 03:28:26;;;;;;;3.80;2.95;;;13.50;99.90;;;;;;4944606;28;20464;-80
2022/06/09 03:30:52;;;;;;;9.83;2.63;;;13.50;99.90;;;;;;4949734;28;20177;-79
2022/06/09 03:33:17;;;;;;;4.07;2.70;;;13.40;99.90;;;;;;4950642;28;20190;-82
2022/06/09 03:35:43;;;;;;;8.70;2.70;;;13.70;99.90;;;;;;4951690;28;20184;-81
2022/06/09 03:38:09;;;;;;;3.83;2.57;;;;;;;;;;4952080;28;20494;-82
2022/06/09 03:40:35;;;;;;;6.07;3.10;;;13.30;99.90;;;;;;4950119;28;20427;-82
2022/06/09 03:43:04;;;;;;;8.10;3.77;;;;;;;;;;4952654;28;20194;-83
2022/06/09 03:45:31;;;;;;;4.45;3.03;;;13.40;99.90;;;;;;4953801;28;20256;-84
2022/06/09 03:47:57;;;;;;;5.88;3.40;;;;;;;;;;4946450;28;20259;-86
2022/06/09 03:50:26;;;;;;;4.80;3.75;;;13.60;99.90;;;;;;4949975;28;20215;-86
2022/06/09 03:52:52;;;;;;;8.38;4.13;;;;;;;;;;4952084;28;20204;-86
2022/06/09 03:55:18;;;;;;;7.47;4.23;;;13.60;99.90;;;;;;4953905;28;20184;-85
2022/06/09 03:57:44;;;;;;;4.40;3.67;;;;;;;;;;4951444;28;20510;-84
2022/06/09 04:00:16;;;;;;;7.32;3.65;;;13.40;99.90;;;;;;4951522;28;20221;-81
2022/06/09 04:02:42;;;;;;;4.55;3.58;;;;;;;;;;4954542;28;20188;-81
2022/06/09 04:05:08;;;;;;;4.13;3.73;;;;;;;;;;4951665;28;20181;-82
2022/06/09 04:07:33;;;;;;;3.92;3.55;;;13.60;99.90;;;;;;4949949;28;20464;-83
2022/06/09 04:09:59;;;;;;;16.43;4.20;;;;;;;;;;4951533;28;20286;-80
2022/06/09 04:12:25;;;;;;;5.47;4.43;;;;;;;;;;4952623;28;20180;-80
2022/06/09 04:14:51;;;;;;;9.83;3.60;;;13.70;99.90;;;;;;4954272;28;20455;-81
2022/06/09 04:17:17;;;;;;;5.97;3.35;;;;;;;;;;4947266;28;20980;-82
2022/06/09 04:19:43;;;;;;;3.65;3.33;;;13.70;99.90;;;;;;4953809;28;20196;-85
2022/06/09 04:22:09;;;;;;;4.30;3.50;;;;;;;;;;4954381;28;20195;-82
2022/06/09 04:24:35;;;;;;;5.03;3.30;;;;;;;;;;4953131;28;20224;-83
2022/06/09 04:27:01;;;;;;;9.45;3.80;;;;;;;;;;4952635;28;20468;-82
2022/06/09 04:29:27;;;;;;;5.28;3.42;;;;;;;;;;4948262;28;20208;-83
2022/06/09 04:31:53;;;;;;;6.73;3.70;;;;;;;;;;4949455;28;20191;-83
2022/06/09 04:34:19;;;;;;;9.67;5.40;;;;;;;;;;4953759;29;20936;-82
2022/06/09 04:36:45;;;;;;;5.80;4.10;;;;;;;;;;4950950;29;20482;-81
2022/06/09 04:39:11;;;;;;;10.18;4.18;;;13.40;99.90;;;;;;4956578;28;20450;-81
2022/06/09 04:41:38;;;;;;;11.90;4.60;;;13.50;99.90;;;;;;4950496;28;20188;-81
2022/06/09 04:44:04;;;;;;;14.60;4.20;;;13.80;99.90;;;;;;4948391;28;20195;-80
2022/06/09 04:46:30;;;;;;;5.53;3.73;;;14.20;99.90;;;;;;4948871;28;20195;-79
2022/06/09 04:48:56;;;;;;;5.60;3.97;;;;;;;;;;4951728;28;20837;-81
2022/06/09 04:51:23;;;;;;;7.17;5.07;;;14.10;99.90;;;;;;4949403;28;20436;-81
2022/06/09 04:53:49;;;;;;;15.10;6.07;;;13.80;99.90;;;;;;4949998;28;20976;-82
2022/06/09 04:56:17;;;;;;;7.40;5.72;;;14.10;99.90;;;;;;4950333;28;20455;-81
2022/06/09 04:58:43;;;;;;;5.55;4.90;;;14.90;99.90;;;;;;4944136;28;20586;-82
2022/06/09 05:01:21;;;;;;;4.90;4.50;;;15.60;99.90;;;;;;4950802;28;20180;-82
2022/06/09 05:03:48;;;;;;;4.50;4.10;;;16.00;99.90;;;;;;4947008;29;20436;-80
2022/06/09 05:06:16;;;;;;;4.70;4.30;;;;;;;;;;4950165;28;20435;-81
2022/06/09 05:08:42;;;;;;;6.80;4.23;;;;;;;;;;4948495;28;21012;-80
2022/06/09 05:11:08;;;;;;;5.53;3.80;;;;;;;;;;4954852;28;20436;-80
2022/06/09 05:13:33;;;;;;;5.20;4.13;;;18.70;99.90;;;;;;4944977;28;20945;-81
2022/06/09 05:15:59;;;;;;;5.53;3.40;;;20.40;99.90;;;;;;4946571;28;20472;-80
2022/06/09 05:18:28;;;;;;;7.60;3.07;;;21.10;99.90;;;;;;4956446;29;20254;-82
2022/06/09 05:20:56;;;;;;;2.97;2.43;;;21.50;99.90;;;;;;4937779;29;20507;-81
2022/06/09 05:23:22;;;;;;;4.47;3.43;;;;;;;;;;4937687;29;20413;-83
2022/06/09 05:25:48;;;;;;;3.30;2.77;;;;;;;;;;4939096;29;20435;-84
2022/06/09 05:28:15;;;;;;;8.80;2.80;;;;;;;;;;4937626;28;20894;-81
2022/06/09 05:30:41;;;;;;;3.27;2.50;;;;;;;;;;4948797;28;20432;-82
2022/06/09 05:33:07;;;;;;;4.40;2.30;;;;;;;;;;4940173;28;20455;-82
2022/06/09 05:35:33;;;;;;;4.40;3.03;;;;;;;;;;4943787;28;20913;-80
2022/06/09 05:46:15;;;;;;;4.30;3.00;;;19.50;99.90;;;;;;4944064;28;20439;-81
2022/06/09 05:48:42;;;;;;;6.87;3.20;;;19.50;99.90;;;;;;4944192;28;20471;-80
2022/06/09 05:51:09;;;;;;;4.73;2.40;;;20.40;99.90;;;;;;4938278;28;20428;-82
2022/06/09 05:53:35;;;;;;;8.30;2.63;;;;;;;;;;4939790;28;20948;-82
2022/06/09 05:56:02;;;;;;;7.83;2.97;;;;;;;;;;4946895;28;20439;-81
2022/06/09 05:58:27;;;;;;;5.03;2.60;;;;;;;;;;4942591;28;20488;-80
2022/06/09 06:00:53;;;;;;;6.33;2.63;;;;;;;;;;4942715;28;21004;-81
2022/06/09 06:03:20;;;;;;;6.00;2.50;;;;;;;;;;4944271;28;20447;-81
2022/06/09 06:08:31;;;;;;;2.20;2.00;;;;;;;;;;4940990;28;20471;-80
2022/06/09 06:10:57;;;;;;;4.03;2.40;;;;;;;;;;4942612;28;20981;-81
2022/06/09 06:13:23;;;;;;;8.10;3.17;;;17.50;99.90;;;;;;4943024;28;20447;-81
2022/06/09 06:15:49;;;;;;;5.03;2.63;;;;;;;;;;4942481;28;20459;-82
2022/06/09 06:18:15;;;;;;;5.93;3.50;;;;;;;;;;4954543;28;20514;-80
2022/06/09 06:20:41;;;;;;;5.27;3.27;;;17.00;99.90;;;;;;4941315;28;20444;-81
2022/06/09 06:23:07;;;;;;;7.67;2.70;;;;;;;;;;4938294;28;20785;-81
2022/06/09 06:25:33;;;;;;;6.80;3.20;;;;;;;;;;4934757;28;20207;-80
2022/06/09 06:27:59;;;;;;;11.70;3.60;;;;;;;;;;4942951;28;20456;-80
2022/06/09 06:30:25;;;;;;;4.87;3.07;;;20.20;99.90;;;;;;4940230;28;20893;-79
2022/06/09 06:32:51;;;;;;;6.30;3.17;;;16.30;99.90;;;;;;4942510;28;20452;-83
2022/06/09 06:35:17;;;;;;;8.40;3.80;;;;;;;;;;4936102;28;20518;-79
2022/06/09 06:37:43;;;;;;;4.93;3.00;;;16.60;99.90;;;;;;4942172;28;20238;-80
2022/06/09 06:40:13;;;;;;;9.53;3.10;;;16.80;99.90;;;;;;4948506;28;20640;-81
2022/06/09 06:42:40;;;;;;;8.73;3.23;;;;;;;;;;4940100;28;20752;-81
2022/06/09 06:45:06;;;;;;;8.93;2.60;;;16.70;99.90;;;;;;4939798;28;20506;-79
2022/06/09 06:47:32;;;;;;;10.43;3.00;;;;;;;;;;4961239;23;21091;-80
2022/06/09 06:49:58;;;;;;;7.63;2.73;;;;;;;;;;4956797;29;20468;-81
2022/06/09 06:52:24;;;;;;;9.90;3.10;;;;;;;;;;4958067;28;20526;-83
2022/06/09 06:54:50;;;;;;;3.57;2.00;;;16.80;99.90;;;;;;4959713;29;20409;-82
2022/06/09 06:57:16;;;;;;;10.07;2.30;;;;;;;;;;4962671;29;20464;-81
2022/06/09 06:59:41;;;;;;;6.33;2.93;;;;;;;;;;4962574;29;20180;-82
2022/06/09 07:02:10;;;;;;;14.70;2.47;;;19.20;99.90;;;;;;4961685;29;20416;-82
2022/06/09 07:04:36;;;;;;;8.20;2.07;;;;;;;;;;4962113;29;20700;-82
2022/06/09 07:07:02;;;;;;;5.60;1.53;;;19.00;99.90;;;;;;4960800;29;20733;-82
2022/06/09 07:09:28;;;;;;;5.07;2.07;;;18.50;99.90;;;;;;4959841;28;20534;-81
2022/06/09 07:11:54;;;;;;;7.87;3.60;;;;;;;;;;4952564;28;20444;-82
2022/06/09 07:14:20;;;;;;;8.00;1.90;;;;;;;;;;4957217;29;20198;-82
2022/06/09 07:16:46;;;;;;;4.50;2.40;;;;;;;;;;4965620;28;20452;-82
2022/06/09 07:19:13;;;;;;;6.13;1.80;;;18.80;99.90;;;;;;4965223;29;20424;-82
2022/06/09 07:21:39;;;;;;;4.20;1.83;;;;;;;;;;4957151;28;21000;-81
2022/06/09 07:24:05;;;;;;;8.80;1.50;;;19.40;99.90;;;;;;4950918;28;20512;-82
2022/06/09 07:26:31;;;;;;;3.27;2.00;;;;;;;;;;4944955;29;20783;-82
2022/06/09 07:28:57;;;;;;;12.23;1.90;;;;;;;;;;4945334;29;20572;-82
2022/06/09 07:31:23;;;;;;;7.60;1.90;;;;;;;;;;4944144;29;20413;-82
2022/06/09 07:33:49;;;;;;;5.10;2.00;;;;;;;;;;4951253;28;20444;-81
2022/06/09 07:36:17;;;;;;;4.90;1.53;;;17.80;99.90;;;;;;4953381;28;21062;-82
2022/06/09 07:38:43;;;;;;;2.10;1.30;;;18.30;99.90;;;;;;4954592;28;20466;-82
2022/06/09 07:41:09;;;;;;;10.10;2.07;;;17.80;99.90;;;;;;4947391;28;20479;-82
2022/06/09 07:43:36;;;;;;;11.10;1.97;;;17.20;99.90;;;;;;4952465;28;20259;-83
2022/06/09 07:46:02;;;;;;;7.20;1.87;;;;;;;;;;4954115;28;20472;-82
2022/06/09 07:48:28;;;;;;;6.60;1.90;;;;;;;;;;4957204;28;20490;-82
2022/06/09 07:50:54;;;;;;;7.97;1.80;;;16.90;99.90;;;;;;4950888;28;20934;-82
2022/06/09 07:53:21;;;;;;;5.23;1.90;;;17.20;99.90;;;;;;4952592;28;20448;-81
2022/06/09 07:55:48;;;;;;;2.53;1.47;;;;;;;;;;4952102;28;20443;-82
2022/06/09 07:58:14;;;;;;;4.50;2.17;;;17.10;99.90;;;;;;4954845;28;20455;-82
2022/06/09 08:00:40;;;;;;;9.30;2.10;;;16.90;99.90;;;;;;4962714;29;20450;-82
2022/06/09 08:03:07;;;;;;;9.00;2.17;;;17.20;99.90;;;;;;4978163;28;20439;-82
2022/06/09 08:05:33;;;;;;;6.23;1.43;;;18.30;99.90;;;;;;4963185;29;20416;-82
2022/06/09 08:07:59;;;;;;;5.73;2.00;;;19.00;99.90;;;;;;4961257;29;20992;-82
2022/06/09 08:10:27;;;;;;;6.43;2.13;;;18.30;99.90;;;;;;4964098;28;20451;-82
2022/06/09 08:12:56;;;;;;;2.70;1.80;;;17.60;99.90;;;;;;4964733;28;20948;-81
2022/06/09 08:15:25;;;;;;;6.17;1.80;;;17.40;99.90;;;;;;4977421;28;20452;-81
2022/06/09 08:17:55;;;;;;;4.80;1.90;;;17.30;99.90;;;;;;4970451;28;20498;-80
2022/06/09 08:20:23;;;;;;;6.53;1.60;;;17.20;99.90;;;;;;4976066;28;20446;-81
2022/06/09 08:22:49;;;;;;;3.70;2.10;;;;;;;;;;4983904;28;20399;-81
2022/06/09 08:25:17;;;;;;;12.87;2.10;;;16.30;99.90;;;;;;4971794;28;20455;-82
2022/06/09 08:27:43;;;;;;;6.30;3.07;;;16.60;99.90;;;;;;4951396;28;20470;-81
2022/06/09 08:30:12;;;;;;;4.00;2.00;;;16.60;99.90;;;;;;4952975;28;20467;-83
2022/06/09 08:32:38;;;;;;;8.83;2.13;;;16.90;99.90;;;;;;4962982;29;20440;-82
2022/06/09 08:35:07;;;;;;;2.90;1.43;;;17.00;99.90;;;;;;4964880;29;20423;-81
2022/06/09 08:37:33;;;;;;;12.40;2.93;;;;;;;;;;4964404;29;20504;-81
2022/06/09 08:39:59;;;;;;;5.43;1.97;;;;;;;;;;4964269;29;20450;-81
2022/06/09 08:42:39;;;;;;;5.57;1.63;;;22.70;99.90;;;;;;4964259;29;20392;-81
2022/06/09 08:45:12;;;;;;;18.80;2.40;;;21.50;99.90;;;;;;4963174;29;20399;-82
2022/06/09 08:47:41;;;;;;;8.23;2.40;;;21.60;99.90;;;;;;4948699;28;20488;-81
2022/06/09 08:50:24;;;;;;;9.10;2.73;;;20.50;99.90;;;;;;4944454;28;20476;-81
2022/06/09 08:53:20;;;;;;;3.67;2.20;;;20.40;99.90;;;;;;4947719;28;20444;-82
2022/06/09 08:55:47;;;;;;;4.73;2.43;;;19.70;99.90;;;;;;4946484;28;20460;-82
2022/06/09 08:58:13;;;;;;;6.07;2.67;;;;;;;;;;4956132;28;20522;-82
2022/06/09 09:00:43;;;;;;;12.53;2.50;;;18.50;99.90;;;;;;4954545;28;20464;-83
2022/06/09 09:03:22;;;;;;;5.57;2.20;;;18.70;99.90;;;;;;4949526;28;20440;-84
2022/06/09 09:05:56;;;;;;;6.90;2.27;;;19.80;99.90;;;;;;4944549;28;20451;-84
2022/06/09 09:08:22;;;;;;;3.67;1.80;;;;;;;;;;4946550;28;20459;-84
2022/06/09 09:10:55;;;;;;;5.10;1.57;;;20.90;99.90;;;;;;4944970;28;20448;-84
2022/06/09 09:13:38;;;;;;;2.93;1.80;;;20.80;99.90;;;;;;4941232;28;20432;-84
2022/06/09 09:16:08;;;;;;;3.33;1.77;;;20.20;99.90;;;;;;4944500;28;20421;-83
2022/06/09 09:18:37;;;;;;;3.73;1.60;;;20.60;99.90;;;;;;4951758;28;22571;-81
2022/06/09 09:21:15;;;;;;;6.57;2.13;;;21.10;99.90;;;;;;4939611;28;20432;-82
2022/06/09 09:23:58;;;;;;;8.40;2.77;;;21.80;99.90;;;;;;4939901;28;20817;-82
2022/06/09 09:26:44;;;;;;;7.53;2.70;;;21.40;99.90;;;;;;4941098;28;20973;-83
2022/06/09 09:29:22;;;;;;;6.17;1.97;;;23.40;99.90;;;;;;4945146;28;20492;-82
2022/06/09 09:31:54;;;;;;;3.93;1.33;;;23.40;99.90;;;;;;4940738;28;20551;-82
2022/06/09 09:34:23;;;;;;;4.87;1.97;;;23.50;99.90;;;;;;4944747;28;20451;-82
2022/06/09 09:36:54;;;;;;;4.77;1.53;;;22.00;99.90;;;;;;4948436;28;20464;-83
2022/06/09 09:39:30;;;;;;;5.00;1.67;;;21.70;99.90;;;;;;4945071;28;20423;-83
2022/06/09 09:42:16;;;;;;;8.50;2.50;;;21.80;99.90;;;;;;4941796;29;20457;-84
2022/06/09 09:44:58;;;;;;;4.13;1.53;;;21.80;99.90;;;;;;4942973;28;21020;-82
2022/06/09 09:47:27;;;;;;;4.63;1.57;;;22.00;99.90;;;;;;4942466;28;20471;-84
2022/06/09 09:50:06;;;;;;;14.90;2.23;;;21.50;99.90;;;;;;4943714;28;20480;-83
2022/06/09 09:52:39;;;;;;;10.70;1.83;;;20.50;99.90;;;;;;4940844;28;21176;-83
2022/06/09 09:55:32;;;;;;;3.67;1.40;;;20.50;99.90;;;;;;4938030;28;20435;-83
2022/06/09 09:58:39;;;;;;;10.00;1.90;;;21.50;99.90;;;;;;4946923;28;20490;-83
2022/06/09 10:01:25;;;;;;;4.97;1.63;;;19.60;99.90;;;;;;4943922;28;20474;-82
2022/06/09 10:10:06;;;;;;;11.60;2.17;;;21.20;99.90;;;;;;4950207;28;20464;-82
2022/06/09 10:12:35;;;;;;;8.20;1.90;;;21.00;99.90;;;;;;4950639;28;20468;-83
2022/06/09 10:15:13;;;;;;;4.57;1.90;;;20.60;99.90;;;;;;4949469;28;20476;-83
2022/06/09 10:18:16;;;;;;;4.63;1.40;;;21.30;99.90;;;;;;4962413;28;20863;-81
2022/06/09 10:20:51;;;;;;;8.20;1.70;;;22.10;99.90;;;;;;4976865;28;20441;-82
2022/06/09 10:23:31;;;;;;;4.83;1.00;;;21.50;99.90;;;;;;4983349;28;20533;-81
2022/06/09 10:26:28;;;;;;;6.47;1.70;;;20.50;99.90;;;;;;4983178;28;20402;-82
2022/06/09 10:29:06;;;;;;;6.63;2.20;;;21.30;99.90;;;;;;4972101;28;20575;-82
2022/06/09 10:32:02;;;;;;;2.10;1.50;;;22.00;99.90;;;;;;4984030;28;20426;-82
2022/06/09 10:34:40;;;;;;;4.93;1.67;;;20.60;99.90;;;;;;4983352;28;20427;-81
2022/06/09 10:37:27;;;;;;;5.47;1.37;;;19.70;99.90;;;;;;4983502;28;21021;-81
2022/06/09 10:40:12;;;;;;;5.80;2.10;;;19.70;99.90;;;;;;4983675;28;20403;-81
2022/06/09 10:42:45;;;;;;;6.60;1.70;;;19.60;99.90;;;;;;4981883;28;20395;-81
2022/06/09 10:45:11;;;;;;;12.70;2.30;;;;;;;;;;4960768;28;20520;-83
2022/06/09 10:57:09;;;;;;;9.53;2.03;;;19.60;99.90;;;;;;4934333;28;20443;-82
2022/06/09 10:59:35;;;;;;;9.43;1.90;;;;;;;;;;4938200;28;20448;-84
2022/06/09 11:02:02;;;;;;;4.77;1.50;;;;;;;;;;4942374;28;20795;-84
2022/06/09 11:04:34;;;;;;;5.63;1.67;;;19.70;99.90;;;;;;4939386;28;20451;-84
2022/06/09 11:07:23;;;;;;;5.03;2.20;;;20.00;99.90;;;;;;4939027;28;20452;-84
2022/06/09 11:10:01;;;;;;;4.77;1.50;;;19.90;99.90;;;;;;4940592;28;20479;-81
2022/06/09 11:12:51;;;;;;;6.53;1.57;;;18.80;99.90;;;;;;4938982;28;20739;-83
2022/06/09 11:15:17;;;;;;;6.17;1.67;;;;;;;;;;4941287;28;20479;-83
2022/06/09 11:17:53;;;;;;;8.03;1.67;;;18.50;99.90;;;;;;4944297;28;20455;-84
2022/06/09 11:20:49;;;;;;;5.40;1.87;;;18.60;99.90;;;;;;4946902;28;20451;-83
2022/06/09 11:23:48;;;;;;;4.53;1.90;;;18.40;99.90;;;;;;4950995;28;20479;-83
2022/06/09 11:26:14;;;;;;;6.20;1.47;;;;;;;;;;4942046;28;20456;-83
2022/06/09 11:28:57;;;;;;;7.40;1.70;;;18.40;99.90;;;;;;4940464;28;20459;-82
2022/06/09 11:31:33;;;;;;;7.03;2.07;;;19.40;99.90;;;;;;4945280;28;20529;-83
2022/06/09 11:33:59;;;;;;;9.93;1.47;;;;;;;;;;4937867;28;20471;-82
2022/06/09 11:36:36;;;;;;;6.10;1.30;;;20.00;99.90;;;;;;4936025;29;20571;-83
2022/06/09 11:39:26;;;;;;;4.50;1.20;;;19.60;99.90;;;;;;4936511;28;23769;-83
2022/06/09 11:41:52;;;;;;;5.70;1.47;;;;;;;;;;4937676;28;20478;-83
2022/06/09 11:44:26;;;;;;;2.87;1.60;;;20.20;99.90;;;;;;4936176;28;20488;-83
2022/06/09 11:46:57;;;;;;;8.53;2.20;;;19.50;99.90;;;;;;4938739;28;20479;-83
2022/06/09 11:49:33;;;;;;;9.00;2.30;;;19.30;99.90;;;;;;4946069;28;20498;-83
2022/06/09 11:52:03;;;;;;;5.33;1.37;;;19.00;99.90;;;;;;4943026;28;20474;-83
2022/06/09 11:54:35;;;;;;;4.23;1.60;;;18.50;99.90;;;;;;4940985;28;20856;-83
2022/06/09 11:57:36;;;;;;;5.00;1.73;;;19.70;99.90;;;;;;4943302;28;20527;-83
2022/06/09 12:00:26;;;;;;;3.17;1.40;;;19.80;99.90;;;;;;4940163;28;20527;-82
2022/06/09 12:02:52;;;;;;;4.07;2.10;;;;;;;;;;4942578;28;20972;-83
2022/06/09 12:05:18;;;;;;;5.53;1.70;;;;;;;;;;4941225;28;20463;-83
2022/06/09 12:07:46;;;;;;;5.17;1.43;;;19.40;99.90;;;;;;4935477;28;20555;-82
2022/06/09 12:10:40;;;;;;;3.90;1.83;;;18.90;99.90;;;;;;4946753;28;20847;-83
2022/06/09 12:13:27;;;;;;;8.13;1.93;;;19.00;99.90;;;;;;4940285;28;20469;-82
2022/06/09 12:16:00;;;;;;;7.97;2.40;;;19.70;99.90;;;;;;4937236;28;20540;-84
2022/06/09 12:18:36;;;;;;;8.03;1.87;;;19.80;99.90;;;;;;4938461;28;20463;-82
2022/06/09 12:21:05;;;;;;;4.20;1.50;;;20.10;99.90;;;;;;4937481;28;20435;-83
2022/06/09 12:23:39;;;;;;;4.53;1.80;;;19.70;99.90;;;;;;4939352;28;20448;-82
2022/06/09 12:26:11;;;;;;;3.80;1.70;;;19.60;99.90;;;;;;4934548;28;20429;-82
2022/06/09 12:28:59;;;;;;;4.20;2.00;;;19.60;99.90;;;;;;4932826;28;20461;-83
2022/06/09 12:31:31;;;;;;;7.73;1.77;;;20.10;99.90;;;;;;4940480;28;20435;-82
2022/06/09 12:34:05;;;;;;;7.03;2.60;;;20.20;99.90;;;;;;4940897;28;20478;-83
2022/06/09 12:36:46;;;;;;;6.53;2.20;;;20.50;99.90;;;;;;4939496;28;20825;-82
2022/06/09 12:39:27;;;;;;;3.60;2.20;;;21.00;99.90;;;;;;4938834;28;20882;-83
2022/06/09 12:42:16;;;;;;;7.33;2.83;;;21.00;99.90;;;;;;4938825;28;20554;-82
2022/06/09 12:44:51;;;;;;;4.03;2.03;;;20.30;99.90;;;;;;4938257;28;20440;-82
2022/06/09 12:47:17;;;;;;;8.70;2.63;;;;;;;;;;4941399;28;20838;-80
2022/06/09 12:49:44;;;;;;;5.80;2.60;;;20.70;99.90;;;;;;4940122;28;20480;-82
2022/06/09 12:52:24;;;;;;;6.17;2.73;;;20.90;99.90;;;;;;4944599;28;20492;-81
2022/06/09 12:54:57;;;;;;;4.77;2.43;;;20.90;99.90;;;;;;4954223;28;20440;-80
2022/06/09 12:57:27;;;;;;;6.40;2.00;;;21.00;99.90;;;;;;4940343;28;20540;-81
2022/06/09 13:00:12;;;;;;;4.73;2.10;;;21.10;99.90;;;;;;4939445;28;20449;-80
2022/06/09 13:02:39;;;;;;;5.23;2.97;;;21.00;99.90;;;;;;4950060;28;20527;-81
2022/06/09 13:05:16;;;;;;;5.03;2.30;;;20.70;99.90;;;;;;4939665;28;20850;-82
2022/06/09 13:07:57;;;;;;;6.43;2.47;;;20.60;99.90;;;;;;4932024;28;20463;-80
2022/06/09 13:10:38;;;;;;;5.83;2.40;;;20.60;99.90;;;;;;4937149;28;20476;-82
2022/06/09 13:13:18;;;;;;;6.50;2.10;;;20.70;99.90;;;;;;4938431;28;20553;-80
2022/06/09 13:15:57;;;;;;;10.47;2.83;;;21.00;99.90;;;;;;4942761;28;20448;-81
2022/06/09 13:18:34;;;;;;;7.73;2.43;;;21.50;99.90;;;;;;4941002;28;20467;-80
2022/06/09 13:21:02;;;;;;;7.23;2.43;;;21.90;99.90;;;;;;4935860;28;22127;-81
2022/06/09 13:23:30;;;;;;;5.57;1.93;;;22.10;99.90;;;;;;4934063;28;20898;-81
2022/06/09 13:25:56;;;;;;;7.80;2.40;;;;;;;;;;4937142;28;20436;-79
2022/06/09 13:28:29;;;;;;;3.27;1.73;;;21.60;99.90;;;;;;4939649;28;20464;-80
2022/06/09 13:30:56;;;;;;;7.67;2.50;;;;;;;;;;4939945;28;20472;-81
2022/06/09 13:33:28;;;;;;;13.40;3.17;;;20.80;99.90;;;;;;4943647;28;20496;-82
2022/06/09 13:36:19;;;;;;;5.70;1.77;;;20.30;99.90;;;;;;4934566;28;21206;-80
2022/06/09 13:38:46;;;;;;;14.10;2.50;;;19.70;99.90;;;;;;4932996;28;20809;-81
2022/06/09 13:41:12;;;;;;;6.37;1.70;;;;;;;;;;4938179;28;20461;-81
2022/06/09 13:43:46;;;;;;;5.77;2.27;;;20.20;99.90;;;;;;4941888;29;20487;-80
2022/06/09 13:46:23;;;;;;;5.67;1.80;;;20.60;99.90;;;;;;4941352;28;20439;-81
2022/06/09 13:49:03;;;;;;;6.07;2.43;;;20.80;99.90;;;;;;4938569;28;20538;-81
2022/06/09 13:51:29;;;;;;;3.70;1.77;;;;;;;;;;4933720;28;20861;-80
2022/06/09 13:54:09;;;;;;;3.80;2.43;;;20.90;99.90;;;;;;4940089;28;20416;-81
2022/06/09 13:56:35;;;;;;;6.20;1.47;;;;;;;;;;4942232;28;20444;-81
2022/06/09 13:59:01;;;;;;;2.73;1.40;;;;;;;;;;4936376;28;20462;-81
2022/06/09 14:01:27;;;;;;;2.43;1.10;;;;;;;;;;4940814;28;20436;-79
2022/06/09 14:03:56;;;;;;;5.23;2.47;;;;;;;;;;4944210;28;20432;-80
2022/06/09 14:06:23;;;;;;;6.00;1.63;;;20.10;99.90;;;;;;4949011;28;20456;-80
2022/06/09 14:08:52;;;;;;;1.87;1.60;;;20.30;99.90;;;;;;4935580;28;21332;-80
2022/06/09 14:11:25;;;;;;;5.17;1.63;;;20.20;99.90;;;;;;4940862;28;20540;-81